createdAt,value
2016-11-07T00:00:07.000Z,0
2016-11-07T00:01:18.189Z,0
2016-11-07T00:02:28.895Z,0
2016-11-07T00:03:39.599Z,0
2016-11-07T00:04:50.288Z,0
2016-11-07T00:06:01.751Z,0
2016-11-07T00:07:12.514Z,0
2016-11-07T00:08:23.766Z,0
2016-11-07T00:09:34.440Z,0
2016-11-07T00:10:45.176Z,0
2016-11-07T00:11:56.273Z,0
2016-11-07T00:13:07.017Z,0
2016-11-07T00:14:18.093Z,0
2016-11-07T00:15:28.744Z,0
2016-11-07T00:16:39.763Z,0
2016-11-07T00:17:51.255Z,0
2016-11-07T00:19:02.098Z,0
2016-11-07T00:20:12.840Z,0
2016-11-07T00:21:23.607Z,0
2016-11-07T00:22:35.063Z,0
2016-11-07T00:23:45.738Z,0
2016-11-07T00:24:56.645Z,0
2016-11-07T00:26:07.359Z,0
2016-11-07T00:27:18.445Z,0
2016-11-07T00:28:29.163Z,0
2016-11-07T00:29:39.958Z,0
2016-11-07T00:30:51.101Z,0
2016-11-07T00:32:01.798Z,0
2016-11-07T00:33:12.921Z,0
2016-11-07T00:34:23.591Z,0
2016-11-07T00:35:34.331Z,0
2016-11-07T00:36:45.075Z,0
2016-11-07T00:37:56.615Z,0
2016-11-07T00:39:08.093Z,0
2016-11-07T00:40:18.864Z,0
2016-11-07T00:41:29.635Z,0
2016-11-07T00:42:40.472Z,0
2016-11-07T00:43:51.945Z,0
2016-11-07T00:45:03.055Z,0
2016-11-07T00:46:14.539Z,0
2016-11-07T00:47:25.229Z,0
2016-11-07T00:48:35.879Z,0
2016-11-07T00:49:46.596Z,0
2016-11-07T00:50:57.313Z,0
2016-11-07T00:52:07.968Z,0
2016-11-07T00:53:19.037Z,0
2016-11-07T00:54:30.277Z,0
2016-11-07T00:55:41.007Z,0
2016-11-07T00:56:51.741Z,0
2016-11-07T00:58:02.797Z,0
2016-11-07T00:59:13.479Z,0
2016-11-07T01:00:24.290Z,0
2016-11-07T01:01:35.025Z,0
2016-11-07T01:02:46.521Z,0
2016-11-07T01:03:57.219Z,0
2016-11-07T01:05:07.924Z,0
2016-11-07T01:06:18.709Z,0
2016-11-07T01:07:29.432Z,0
2016-11-07T01:08:40.588Z,0
2016-11-07T01:09:51.683Z,0
2016-11-07T01:11:03.642Z,0
2016-11-07T01:12:15.086Z,0
2016-11-07T01:13:25.754Z,0
2016-11-07T01:14:36.446Z,0
2016-11-07T01:15:47.182Z,0
2016-11-07T01:16:57.945Z,0
2016-11-07T01:18:09.546Z,0
2016-11-07T01:19:20.667Z,0
2016-11-07T01:20:32.130Z,0
2016-11-07T01:21:44.081Z,0
2016-11-07T01:22:54.833Z,0
2016-11-07T01:24:06.100Z,0
2016-11-07T01:25:16.809Z,0
2016-11-07T01:26:28.720Z,0
2016-11-07T01:27:39.854Z,0
2016-11-07T01:28:51.030Z,0
2016-11-07T01:30:01.795Z,0
2016-11-07T01:31:12.486Z,0
2016-11-07T01:32:23.954Z,0
2016-11-07T01:33:35.067Z,0
2016-11-07T01:34:46.359Z,0
2016-11-07T01:35:57.778Z,0
2016-11-07T01:37:09.752Z,0
2016-11-07T01:38:20.467Z,0
2016-11-07T01:39:31.158Z,0
2016-11-07T01:40:42.208Z,0
2016-11-07T01:41:53.001Z,0
2016-11-07T01:43:03.702Z,0
2016-11-07T01:44:14.394Z,0
2016-11-07T01:45:25.478Z,0
2016-11-07T01:46:36.139Z,0
2016-11-07T01:47:47.003Z,0
2016-11-07T01:48:57.725Z,0
2016-11-07T01:50:08.513Z,0
2016-11-07T01:51:19.559Z,0
2016-11-07T01:52:30.278Z,0
2016-11-07T01:53:40.993Z,0
2016-11-07T01:54:52.092Z,0
2016-11-07T01:56:02.803Z,0
2016-11-07T01:57:13.915Z,0
2016-11-07T01:58:24.620Z,0
2016-11-07T01:59:35.683Z,0
2016-11-07T02:00:46.309Z,0
2016-11-07T02:01:57.002Z,0
2016-11-07T02:03:08.144Z,0
2016-11-07T02:04:19.276Z,0
2016-11-07T02:05:30.118Z,0
2016-11-07T02:06:41.272Z,0
2016-11-07T02:07:52.365Z,0
2016-11-07T02:09:03.431Z,0
2016-11-07T02:10:14.192Z,0
2016-11-07T02:11:25.377Z,0
2016-11-07T02:12:36.515Z,0
2016-11-07T02:13:47.591Z,0
2016-11-07T02:14:58.845Z,0
2016-11-07T02:16:10.112Z,0
2016-11-07T02:17:21.242Z,0
2016-11-07T02:18:31.953Z,0
2016-11-07T02:19:43.421Z,0
2016-11-07T02:20:54.490Z,0
2016-11-07T02:22:05.634Z,0
2016-11-07T02:23:16.464Z,0
2016-11-07T02:24:27.181Z,0
2016-11-07T02:25:37.946Z,0
2016-11-07T02:26:48.681Z,0
2016-11-07T02:27:59.395Z,0
2016-11-07T02:29:10.256Z,0
2016-11-07T02:30:21.897Z,0
2016-11-07T02:31:32.920Z,0
2016-11-07T02:32:44.433Z,0
2016-11-07T02:33:55.189Z,0
2016-11-07T02:35:06.270Z,0
2016-11-07T02:36:16.947Z,0
2016-11-07T02:37:27.661Z,0
2016-11-07T02:38:38.386Z,0
2016-11-07T02:39:50.289Z,0
2016-11-07T02:41:00.983Z,0
2016-11-07T02:42:12.093Z,0
2016-11-07T02:43:23.190Z,0
2016-11-07T02:44:34.683Z,0
2016-11-07T02:45:45.392Z,0
2016-11-07T02:46:56.217Z,0
2016-11-07T02:48:07.353Z,0
2016-11-07T02:49:18.433Z,0
2016-11-07T02:50:29.149Z,0
2016-11-07T02:51:39.796Z,0
2016-11-07T02:52:50.999Z,0
2016-11-07T02:54:01.706Z,0
2016-11-07T02:55:12.808Z,0
2016-11-07T02:56:23.568Z,0
2016-11-07T02:57:34.262Z,0
2016-11-07T02:58:45.511Z,0
2016-11-07T02:59:57.063Z,0
2016-11-07T03:01:07.822Z,0
2016-11-07T03:02:18.590Z,0
2016-11-07T03:03:29.305Z,0
2016-11-07T03:04:40.039Z,0
2016-11-07T03:05:51.514Z,0
2016-11-07T03:07:02.277Z,0
2016-11-07T03:08:12.956Z,0
2016-11-07T03:09:23.701Z,0
2016-11-07T03:10:34.993Z,0
2016-11-07T03:11:45.832Z,0
2016-11-07T03:12:56.483Z,0
2016-11-07T03:14:07.208Z,0
2016-11-07T03:15:17.976Z,0
2016-11-07T03:16:29.153Z,0
2016-11-07T03:17:39.814Z,0
2016-11-07T03:18:50.565Z,0
2016-11-07T03:20:01.261Z,0
2016-11-07T03:21:12.338Z,0
2016-11-07T03:22:23.471Z,0
2016-11-07T03:23:34.196Z,0
2016-11-07T03:24:45.330Z,0
2016-11-07T03:25:56.129Z,0
2016-11-07T03:27:06.849Z,0
2016-11-07T03:28:18.054Z,0
2016-11-07T03:29:29.084Z,0
2016-11-07T03:30:39.779Z,0
2016-11-07T03:31:50.502Z,0
2016-11-07T03:33:01.255Z,0
2016-11-07T03:34:12.023Z,0
2016-11-07T03:35:23.508Z,0
2016-11-07T03:36:34.673Z,0
2016-11-07T03:37:46.520Z,0
2016-11-07T03:38:57.196Z,0
2016-11-07T03:40:08.327Z,0
2016-11-07T03:41:19.411Z,0
2016-11-07T03:42:30.571Z,0
2016-11-07T03:43:41.231Z,0
2016-11-07T03:44:52.290Z,0
2016-11-07T03:46:03.812Z,0
2016-11-07T03:47:14.489Z,0
2016-11-07T03:48:25.638Z,0
2016-11-07T03:49:36.371Z,0
2016-11-07T03:50:47.470Z,0
2016-11-07T03:51:58.331Z,0
2016-11-07T03:53:09.850Z,0
2016-11-07T03:54:21.295Z,0
2016-11-07T03:55:32.384Z,0
2016-11-07T03:56:43.178Z,0
2016-11-07T03:57:54.539Z,0
2016-11-07T03:59:05.258Z,0
2016-11-07T04:00:16.037Z,0
2016-11-07T04:01:26.816Z,0
2016-11-07T04:02:37.519Z,0
2016-11-07T04:03:48.271Z,0
2016-11-07T04:04:59.382Z,0
2016-11-07T04:06:10.478Z,0
2016-11-07T04:07:21.179Z,0
2016-11-07T04:08:32.818Z,0
2016-11-07T04:09:43.531Z,0
2016-11-07T04:10:54.640Z,0
2016-11-07T04:12:05.356Z,0
2016-11-07T04:13:16.602Z,0
2016-11-07T04:14:28.242Z,0
2016-11-07T04:15:39.275Z,0
2016-11-07T04:16:49.996Z,0
2016-11-07T04:18:00.767Z,0
2016-11-07T04:19:11.513Z,0
2016-11-07T04:20:22.342Z,0
2016-11-07T04:21:34.010Z,0
2016-11-07T04:22:45.203Z,0
2016-11-07T04:23:56.318Z,0
2016-11-07T04:25:07.466Z,0
2016-11-07T04:26:18.170Z,0
2016-11-07T04:27:29.455Z,0
2016-11-07T04:28:41.379Z,0
2016-11-07T04:29:52.402Z,0
2016-11-07T04:31:03.441Z,0
2016-11-07T04:32:14.541Z,0
2016-11-07T04:33:25.599Z,0
2016-11-07T04:34:37.021Z,0
2016-11-07T04:35:48.021Z,0
2016-11-07T04:36:59.442Z,0
2016-11-07T04:38:11.278Z,0
2016-11-07T04:39:21.961Z,0
2016-11-07T04:40:32.604Z,0
2016-11-07T04:41:43.223Z,0
2016-11-07T04:42:54.658Z,0
2016-11-07T04:44:06.131Z,0
2016-11-07T04:45:17.647Z,0
2016-11-07T04:46:30.269Z,0
2016-11-07T04:47:41.329Z,0
2016-11-07T04:48:53.131Z,0
2016-11-07T04:50:03.763Z,0
2016-11-07T04:51:14.372Z,0
2016-11-07T04:52:26.245Z,0
2016-11-07T04:53:37.474Z,0
2016-11-07T04:54:48.166Z,0
2016-11-07T04:55:58.801Z,0
2016-11-07T04:57:09.497Z,0
2016-11-07T04:58:21.328Z,0
2016-11-07T04:59:32.774Z,0
2016-11-07T05:00:44.266Z,0
2016-11-07T05:01:55.325Z,0
2016-11-07T05:03:06.109Z,0
2016-11-07T05:04:17.180Z,0
2016-11-07T05:05:28.594Z,0
2016-11-07T05:06:39.622Z,0
2016-11-07T05:07:50.680Z,0
2016-11-07T05:09:02.193Z,0
2016-11-07T05:10:13.584Z,0
2016-11-07T05:11:25.438Z,0
2016-11-07T05:12:36.874Z,0
2016-11-07T05:13:51.347Z,0
2016-11-07T05:15:02.808Z,0
2016-11-07T05:16:20.732Z,0
2016-11-07T05:17:31.430Z,0
2016-11-07T05:18:42.516Z,0
2016-11-07T05:19:54.575Z,0
2016-11-07T05:21:06.432Z,0
2016-11-07T05:22:17.456Z,0
2016-11-07T05:23:28.897Z,0
2016-11-07T05:24:40.312Z,0
2016-11-07T05:25:51.441Z,0
2016-11-07T05:27:02.089Z,0
2016-11-07T05:28:12.742Z,0
2016-11-07T05:29:24.017Z,0
2016-11-07T05:30:35.471Z,0
2016-11-07T05:31:46.597Z,0
2016-11-07T05:32:58.066Z,0
2016-11-07T05:34:09.236Z,0
2016-11-07T05:35:21.493Z,0
2016-11-07T05:36:32.886Z,0
2016-11-07T05:37:43.525Z,0
2016-11-07T05:38:54.145Z,0
2016-11-07T05:40:05.116Z,0
2016-11-07T05:41:16.621Z,0
2016-11-07T05:42:28.101Z,0
2016-11-07T05:43:39.248Z,0
2016-11-07T05:44:51.103Z,0
2016-11-07T05:46:02.976Z,0
2016-11-07T05:47:14.476Z,0
2016-11-07T05:48:25.593Z,0
2016-11-07T05:49:37.168Z,0
2016-11-07T05:50:48.196Z,0
2016-11-07T05:51:59.276Z,0
2016-11-07T05:53:11.131Z,0
2016-11-07T05:54:21.793Z,0
2016-11-07T05:55:32.440Z,0
2016-11-07T05:56:43.491Z,0
2016-11-07T05:57:54.519Z,0
2016-11-07T05:59:05.997Z,0
2016-11-07T06:00:17.087Z,0
2016-11-07T06:01:28.183Z,0
2016-11-07T06:02:39.178Z,0
2016-11-07T06:03:50.201Z,0
2016-11-07T06:05:01.628Z,0
2016-11-07T06:06:13.093Z,0
2016-11-07T06:07:24.612Z,0
2016-11-07T06:08:35.654Z,0
2016-11-07T06:09:46.694Z,0
2016-11-07T06:10:58.168Z,0
2016-11-07T06:12:09.629Z,0
2016-11-07T06:13:20.379Z,0
2016-11-07T06:14:31.840Z,0
2016-11-07T06:15:42.493Z,0
2016-11-07T06:16:53.163Z,0
2016-11-07T06:18:03.802Z,0
2016-11-07T06:19:14.829Z,0
2016-11-07T06:20:25.453Z,0
2016-11-07T06:21:36.908Z,0
2016-11-07T06:22:47.976Z,0
2016-11-07T06:23:58.666Z,0
2016-11-07T06:25:10.104Z,0
2016-11-07T06:26:21.541Z,0
2016-11-07T06:27:32.583Z,0
2016-11-07T06:28:43.196Z,0
2016-11-07T06:29:55.064Z,0
2016-11-07T06:31:06.916Z,0
2016-11-07T06:32:18.097Z,0
2016-11-07T06:33:29.203Z,0
2016-11-07T06:34:39.884Z,0
2016-11-07T06:35:50.562Z,0
2016-11-07T06:37:02.115Z,0
2016-11-07T06:38:13.605Z,0
2016-11-07T06:39:24.289Z,0
2016-11-07T06:40:35.707Z,0
2016-11-07T06:41:47.605Z,0
2016-11-07T06:42:58.316Z,0
2016-11-07T06:44:09.347Z,0
2016-11-07T06:45:20.049Z,0
2016-11-07T06:46:31.950Z,0
2016-11-07T06:47:44.626Z,0
2016-11-07T06:48:55.229Z,0
2016-11-07T06:50:05.863Z,0
2016-11-07T06:51:16.844Z,0
2016-11-07T06:52:28.792Z,0
2016-11-07T06:53:41.131Z,0
2016-11-07T06:54:52.587Z,0
2016-11-07T06:56:03.592Z,0
2016-11-07T06:57:15.025Z,0
2016-11-07T06:58:26.028Z,0
2016-11-07T06:59:36.636Z,0
2016-11-07T07:00:47.766Z,0
2016-11-07T07:01:58.446Z,0
2016-11-07T07:03:09.604Z,0
2016-11-07T07:04:21.424Z,0
2016-11-07T07:05:32.509Z,0
2016-11-07T07:06:44.080Z,0
2016-11-07T07:07:54.786Z,0
2016-11-07T07:09:05.842Z,0
2016-11-07T07:10:17.740Z,0
2016-11-07T07:11:28.354Z,0
2016-11-07T07:12:38.962Z,0
2016-11-07T07:13:50.787Z,0
2016-11-07T07:15:01.437Z,0
2016-11-07T07:16:13.227Z,0
2016-11-07T07:17:23.873Z,0
2016-11-07T07:18:35.414Z,0
2016-11-07T07:19:46.469Z,0
2016-11-07T07:20:57.118Z,0
2016-11-07T07:22:07.818Z,0
2016-11-07T07:23:18.879Z,0
2016-11-07T07:24:30.421Z,0
2016-11-07T07:25:41.871Z,0
2016-11-07T07:26:53.343Z,0
2016-11-07T07:28:04.437Z,0
2016-11-07T07:29:15.132Z,0
2016-11-07T07:30:26.232Z,0
2016-11-07T07:31:37.292Z,0
2016-11-07T07:32:47.981Z,0
2016-11-07T07:33:58.611Z,0
2016-11-07T07:35:09.236Z,0
2016-11-07T07:36:20.329Z,0
2016-11-07T07:37:30.972Z,0
2016-11-07T07:38:56.643Z,0
2016-11-07T07:40:07.305Z,0
2016-11-07T07:41:19.702Z,0
2016-11-07T07:42:30.337Z,0
2016-11-07T07:43:41.365Z,0
2016-11-07T07:44:52.015Z,0
2016-11-07T07:46:03.868Z,0
2016-11-07T07:47:14.878Z,0
2016-11-07T07:48:25.983Z,0
2016-11-07T07:49:37.386Z,0
2016-11-07T07:50:48.799Z,0
2016-11-07T07:51:59.440Z,0
2016-11-07T07:53:10.574Z,0
2016-11-07T07:54:21.225Z,0
2016-11-07T07:55:32.262Z,0
2016-11-07T07:56:43.672Z,0
2016-11-07T07:57:55.502Z,0
2016-11-07T07:59:06.137Z,0
2016-11-07T08:00:16.831Z,0
2016-11-07T08:01:27.919Z,0
2016-11-07T08:02:40.176Z,0
2016-11-07T08:03:50.804Z,0
2016-11-07T08:05:01.593Z,0
2016-11-07T08:06:12.645Z,0
2016-11-07T08:07:24.540Z,0
2016-11-07T08:08:35.934Z,0
2016-11-07T08:09:47.369Z,0
2016-11-07T08:10:58.038Z,0
2016-11-07T08:12:08.684Z,0
2016-11-07T08:13:20.875Z,5
2016-11-07T08:14:32.312Z,5
2016-11-07T08:15:43.309Z,5
2016-11-07T08:16:54.047Z,5
2016-11-07T08:18:05.090Z,5
2016-11-07T08:19:16.522Z,10
2016-11-07T08:20:27.605Z,10
2016-11-07T08:21:39.028Z,10
2016-11-07T08:22:49.659Z,15
2016-11-07T08:24:00.275Z,15
2016-11-07T08:25:10.900Z,15
2016-11-07T08:26:22.790Z,20
2016-11-07T08:27:34.672Z,20
2016-11-07T08:28:45.415Z,25
2016-11-07T08:29:56.483Z,30
2016-11-07T08:31:07.580Z,30
2016-11-07T08:32:18.615Z,35
2016-11-07T08:33:30.078Z,35
2016-11-07T08:34:40.727Z,40
2016-11-07T08:35:52.554Z,45
2016-11-07T08:37:04.434Z,50
2016-11-07T08:38:15.917Z,55
2016-11-07T08:39:27.383Z,60
2016-11-07T08:40:39.316Z,60
2016-11-07T08:41:50.761Z,65
2016-11-07T08:43:02.212Z,75
2016-11-07T08:44:12.863Z,75
2016-11-07T08:45:23.864Z,75
2016-11-07T08:46:34.491Z,75
2016-11-07T08:47:45.534Z,80
2016-11-07T08:48:56.589Z,85
2016-11-07T08:50:08.204Z,85
2016-11-07T08:51:19.244Z,85
2016-11-07T08:52:30.336Z,85
2016-11-07T08:53:40.984Z,90
2016-11-07T08:54:52.050Z,100
2016-11-07T08:56:03.860Z,100
2016-11-07T08:57:14.542Z,95
2016-11-07T08:58:25.651Z,100
2016-11-07T08:59:36.299Z,105
2016-11-07T09:00:47.735Z,115
2016-11-07T09:01:59.168Z,125
2016-11-07T09:03:10.221Z,125
2016-11-07T09:04:21.249Z,125
2016-11-07T09:05:31.929Z,130
2016-11-07T09:06:43.002Z,140
2016-11-07T09:07:54.030Z,150
2016-11-07T09:09:05.036Z,155
2016-11-07T09:10:16.535Z,160
2016-11-07T09:11:27.910Z,175
2016-11-07T09:12:39.299Z,180
2016-11-07T09:13:50.334Z,180
2016-11-07T09:15:01.337Z,180
2016-11-07T09:16:12.465Z,190
2016-11-07T09:17:23.894Z,200
2016-11-07T09:18:35.368Z,200
2016-11-07T09:19:47.496Z,195
2016-11-07T09:20:59.232Z,190
2016-11-07T09:22:10.327Z,205
2016-11-07T09:23:20.979Z,235
2016-11-07T09:24:31.599Z,260
2016-11-07T09:25:42.281Z,285
2016-11-07T09:26:52.892Z,280
2016-11-07T09:28:03.647Z,265
2016-11-07T09:29:14.330Z,250
2016-11-07T09:30:25.364Z,240
2016-11-07T09:31:36.801Z,220
2016-11-07T09:32:47.839Z,210
2016-11-07T09:33:58.971Z,220
2016-11-07T09:35:10.442Z,240
2016-11-07T09:36:22.702Z,275
2016-11-07T09:37:33.744Z,310
2016-11-07T09:38:44.820Z,335
2016-11-07T09:39:56.303Z,390
2016-11-07T09:41:07.324Z,580
2016-11-07T09:42:17.918Z,640
2016-11-07T09:43:28.677Z,620
2016-11-07T09:44:40.177Z,475
2016-11-07T09:45:51.371Z,420
2016-11-07T09:47:02.012Z,565
2016-11-07T09:48:13.088Z,615
2016-11-07T09:49:24.107Z,640
2016-11-07T09:50:35.511Z,495
2016-11-07T09:51:46.241Z,485
2016-11-07T09:52:57.747Z,505
2016-11-07T09:54:08.825Z,435
2016-11-07T09:55:20.370Z,390
2016-11-07T09:56:31.512Z,425
2016-11-07T09:57:42.986Z,485
2016-11-07T09:58:53.652Z,515
2016-11-07T10:00:04.687Z,425
2016-11-07T10:01:15.758Z,430
2016-11-07T10:02:26.847Z,465
2016-11-07T10:03:38.007Z,510
2016-11-07T10:04:49.477Z,570
2016-11-07T10:06:00.541Z,690
2016-11-07T10:07:11.178Z,1000
2016-11-07T10:08:22.275Z,1075
2016-11-07T10:09:33.309Z,830
2016-11-07T10:10:44.864Z,580
2016-11-07T10:11:55.932Z,555
2016-11-07T10:13:06.942Z,990
2016-11-07T10:14:17.616Z,1045
2016-11-07T10:15:28.784Z,1130
2016-11-07T10:16:40.345Z,1155
2016-11-07T10:17:51.403Z,1145
2016-11-07T10:19:02.467Z,1160
2016-11-07T10:20:13.174Z,1140
2016-11-07T10:21:24.260Z,1255
2016-11-07T10:22:36.412Z,1315
2016-11-07T10:23:47.424Z,1385
2016-11-07T10:24:58.520Z,1430
2016-11-07T10:26:09.176Z,1420
2016-11-07T10:27:20.724Z,1350
2016-11-07T10:28:31.777Z,1340
2016-11-07T10:29:42.846Z,1360
2016-11-07T10:30:53.505Z,1390
2016-11-07T10:32:04.115Z,1420
2016-11-07T10:33:14.937Z,1425
2016-11-07T10:34:26.448Z,1435
2016-11-07T10:35:37.439Z,1420
2016-11-07T10:36:48.902Z,1440
2016-11-07T10:38:00.382Z,1535
2016-11-07T10:39:11.381Z,1485
2016-11-07T10:40:22.482Z,1450
2016-11-07T10:41:33.503Z,1480
2016-11-07T10:42:44.538Z,1530
2016-11-07T10:43:55.184Z,1560
2016-11-07T10:45:05.938Z,1570
2016-11-07T10:46:16.597Z,1640
2016-11-07T10:47:27.244Z,1585
2016-11-07T10:48:38.268Z,1590
2016-11-07T10:49:50.507Z,1510
2016-11-07T10:51:01.939Z,1425
2016-11-07T10:52:12.512Z,1475
2016-11-07T10:53:23.187Z,1460
2016-11-07T10:54:34.232Z,1570
2016-11-07T10:55:44.878Z,1625
2016-11-07T10:56:56.836Z,1655
2016-11-07T10:58:07.913Z,1595
2016-11-07T10:59:18.620Z,1525
2016-11-07T11:00:29.687Z,1635
2016-11-07T11:01:40.471Z,1680
2016-11-07T11:02:51.621Z,1635
2016-11-07T11:04:02.278Z,1465
2016-11-07T11:05:13.343Z,1485
2016-11-07T11:06:23.973Z,1650
2016-11-07T11:07:34.636Z,1555
2016-11-07T11:08:45.382Z,1455
2016-11-07T11:09:56.784Z,1655
2016-11-07T11:11:07.801Z,1645
2016-11-07T11:12:19.653Z,1705
2016-11-07T11:13:30.683Z,1685
2016-11-07T11:14:41.864Z,1640
2016-11-07T11:15:52.862Z,1700
2016-11-07T11:17:04.037Z,1665
2016-11-07T11:18:15.492Z,1785
2016-11-07T11:19:26.180Z,1780
2016-11-07T11:20:36.823Z,1785
2016-11-07T11:21:47.877Z,1760
2016-11-07T11:23:03.068Z,1700
2016-11-07T11:24:13.739Z,1710
2016-11-07T11:25:24.374Z,1815
2016-11-07T11:26:35.941Z,1875
2016-11-07T11:27:47.054Z,1770
2016-11-07T11:28:58.503Z,1655
2016-11-07T11:30:09.513Z,1705
2016-11-07T11:31:20.651Z,1800
2016-11-07T11:32:31.439Z,1745
2016-11-07T11:33:43.011Z,1840
2016-11-07T11:34:53.694Z,1830
2016-11-07T11:36:04.692Z,1945
2016-11-07T11:37:15.741Z,1825
2016-11-07T11:38:26.513Z,1805
2016-11-07T11:39:37.711Z,1875
2016-11-07T11:40:50.000Z,1800
2016-11-07T11:42:00.644Z,1855
2016-11-07T11:43:12.097Z,1935
2016-11-07T11:44:22.876Z,1905
2016-11-07T11:45:33.473Z,1960
2016-11-07T11:46:44.913Z,1925
2016-11-07T11:47:55.580Z,1985
2016-11-07T11:49:06.271Z,1965
2016-11-07T11:50:16.976Z,1995
2016-11-07T11:51:28.691Z,2015
2016-11-07T11:52:39.776Z,1945
2016-11-07T11:53:50.422Z,1890
2016-11-07T11:55:01.069Z,1975
2016-11-07T11:56:11.813Z,1955
2016-11-07T11:57:22.866Z,1895
2016-11-07T11:58:37.447Z,1890
2016-11-07T11:59:48.939Z,2055
2016-11-07T12:01:00.449Z,2090
2016-11-07T12:02:11.848Z,2165
2016-11-07T12:03:22.911Z,2110
2016-11-07T12:04:34.361Z,2155
2016-11-07T12:05:45.369Z,2100
2016-11-07T12:06:56.416Z,2140
2016-11-07T12:08:07.254Z,2125
2016-11-07T12:09:17.864Z,2145
2016-11-07T12:10:28.900Z,2245
2016-11-07T12:11:39.932Z,2195
2016-11-07T12:12:50.989Z,2190
2016-11-07T12:14:01.727Z,2080
2016-11-07T12:15:12.698Z,2260
2016-11-07T12:16:23.790Z,2220
2016-11-07T12:17:34.394Z,2225
2016-11-07T12:18:45.452Z,2230
2016-11-07T12:19:56.945Z,2215
2016-11-07T12:21:07.586Z,2295
2016-11-07T12:22:19.468Z,2340
2016-11-07T12:23:30.145Z,2270
2016-11-07T12:24:40.811Z,2265
2016-11-07T12:25:52.444Z,2280
2016-11-07T12:27:03.656Z,2340
2016-11-07T12:28:14.335Z,2310
2016-11-07T12:29:25.419Z,2180
2016-11-07T12:30:36.086Z,2090
2016-11-07T12:31:47.212Z,1995
2016-11-07T12:32:57.866Z,2190
2016-11-07T12:34:08.880Z,2375
2016-11-07T12:35:19.917Z,2405
2016-11-07T12:36:31.351Z,2230
2016-11-07T12:37:42.226Z,2090
2016-11-07T12:38:53.349Z,2135
2016-11-07T12:40:04.386Z,2230
2016-11-07T12:41:15.849Z,2290
2016-11-07T12:42:26.528Z,2400
2016-11-07T12:43:37.580Z,2375
2016-11-07T12:44:48.789Z,2345
2016-11-07T12:46:01.113Z,2380
2016-11-07T12:47:12.153Z,2405
2016-11-07T12:48:23.621Z,2305
2016-11-07T12:49:34.659Z,2365
2016-11-07T12:50:46.096Z,2350
2016-11-07T12:51:57.562Z,2390
2016-11-07T12:53:08.652Z,2350
2016-11-07T12:54:19.702Z,2340
2016-11-07T12:55:30.449Z,2430
2016-11-07T12:56:42.231Z,1995
2016-11-07T12:57:53.699Z,2085
2016-11-07T12:59:04.705Z,1990
2016-11-07T13:00:16.672Z,2040
2016-11-07T13:01:28.142Z,1895
2016-11-07T13:03:13.525Z,1935
2016-11-07T13:04:24.589Z,1865
2016-11-07T13:05:35.630Z,2370
2016-11-07T13:06:46.724Z,2115
2016-11-07T13:07:58.574Z,2200
2016-11-07T13:09:09.204Z,2625
2016-11-07T13:10:19.880Z,2670
2016-11-07T13:11:31.039Z,2695
2016-11-07T13:12:41.839Z,2560
2016-11-07T13:13:52.526Z,2495
2016-11-07T13:15:03.148Z,2965
2016-11-07T13:16:13.805Z,2880
2016-11-07T13:17:24.508Z,2540
2016-11-07T13:18:35.965Z,2665
2016-11-07T13:19:46.613Z,2435
2016-11-07T13:20:57.253Z,2605
2016-11-07T13:22:07.874Z,2565
2016-11-07T13:23:50.349Z,830
2016-11-07T13:25:02.122Z,855
2016-11-07T13:26:13.279Z,925
2016-11-07T13:27:24.336Z,2245
2016-11-07T13:28:36.382Z,2405
2016-11-07T13:29:47.514Z,2375
2016-11-07T13:30:58.165Z,2165
2016-11-07T13:32:09.260Z,1985
2016-11-07T13:33:20.328Z,2225
2016-11-07T13:34:30.988Z,2100
2016-11-07T13:35:41.700Z,2105
2016-11-07T13:36:52.415Z,1895
2016-11-07T13:38:06.970Z,2515
2016-11-07T13:39:18.016Z,2755
2016-11-07T13:40:29.498Z,2115
2016-11-07T13:41:41.497Z,2075
2016-11-07T13:42:52.584Z,2960
2016-11-07T13:44:03.689Z,2390
2016-11-07T13:45:14.363Z,2075
2016-11-07T13:46:25.468Z,2515
2016-11-07T13:47:36.627Z,2525
2016-11-07T13:48:48.165Z,2175
2016-11-07T13:49:58.771Z,2320
2016-11-07T13:51:09.958Z,2170
2016-11-07T13:52:21.012Z,1965
2016-11-07T13:53:31.713Z,1890
2016-11-07T13:54:43.181Z,1820
2016-11-07T13:55:54.209Z,1710
2016-11-07T13:57:05.270Z,1680
2016-11-07T13:58:16.436Z,1385
2016-11-07T13:59:28.652Z,1445
2016-11-07T14:00:40.572Z,2425
2016-11-07T14:01:51.667Z,1985
2016-11-07T14:03:02.306Z,1495
2016-11-07T14:04:13.407Z,2580
2016-11-07T14:05:24.053Z,2015
2016-11-07T14:06:35.473Z,1600
2016-11-07T14:07:49.636Z,2050
2016-11-07T14:09:00.297Z,1860
2016-11-07T14:10:10.949Z,1945
2016-11-07T14:11:25.103Z,2065
2016-11-07T14:12:36.230Z,1795
2016-11-07T14:13:47.783Z,1920
2016-11-07T14:14:58.829Z,1820
2016-11-07T14:16:09.952Z,1415
2016-11-07T14:17:22.967Z,1385
2016-11-07T14:18:33.684Z,1485
2016-11-07T14:19:44.771Z,1690
2016-11-07T14:20:55.449Z,1965
2016-11-07T14:22:06.042Z,2040
2016-11-07T14:23:17.490Z,1645
2016-11-07T14:24:28.556Z,1520
2016-11-07T14:25:39.680Z,1465
2016-11-07T14:26:50.734Z,1145
2016-11-07T14:28:01.825Z,1120
2016-11-07T14:29:12.941Z,1080
2016-11-07T14:30:23.994Z,1070
2016-11-07T14:31:34.674Z,1035
2016-11-07T14:32:45.842Z,1030
2016-11-07T14:33:56.891Z,1060
2016-11-07T14:35:07.672Z,1070
2016-11-07T14:36:19.386Z,1110
2016-11-07T14:37:30.550Z,1155
2016-11-07T14:38:41.541Z,1085
2016-11-07T14:39:52.210Z,1140
2016-11-07T14:41:03.735Z,1050
2016-11-07T14:42:14.370Z,1000
2016-11-07T14:43:25.807Z,995
2016-11-07T14:44:36.458Z,990
2016-11-07T14:45:48.129Z,985
2016-11-07T14:46:59.275Z,1205
2016-11-07T14:48:09.910Z,815
2016-11-07T14:49:20.579Z,765
2016-11-07T14:50:31.261Z,715
2016-11-07T14:51:41.984Z,715
2016-11-07T14:52:52.662Z,760
2016-11-07T14:54:03.370Z,825
2016-11-07T14:55:14.365Z,1315
2016-11-07T14:56:25.810Z,1735
2016-11-07T14:57:36.514Z,1865
2016-11-07T14:58:47.731Z,2305
2016-11-07T14:59:58.844Z,1855
2016-11-07T15:01:10.402Z,1170
2016-11-07T15:02:21.517Z,940
2016-11-07T15:03:32.976Z,925
2016-11-07T15:04:44.868Z,1655
2016-11-07T15:05:56.382Z,2575
2016-11-07T15:07:07.553Z,1150
2016-11-07T15:08:19.085Z,2500
2016-11-07T15:09:30.565Z,2390
2016-11-07T15:10:41.688Z,2455
2016-11-07T15:11:53.681Z,1445
2016-11-07T15:13:04.753Z,1160
2016-11-07T15:14:15.863Z,1270
2016-11-07T15:15:27.031Z,2295
2016-11-07T15:16:38.200Z,795
2016-11-07T15:17:49.234Z,830
2016-11-07T15:19:00.666Z,1325
2016-11-07T15:20:12.259Z,1505
2016-11-07T15:21:23.336Z,2315
2016-11-07T15:22:34.429Z,2320
2016-11-07T15:23:45.101Z,2365
2016-11-07T15:24:56.540Z,2325
2016-11-07T15:26:07.260Z,2235
2016-11-07T15:27:18.350Z,2105
2016-11-07T15:28:29.037Z,2145
2016-11-07T15:29:39.745Z,2175
2016-11-07T15:30:50.444Z,2075
2016-11-07T15:32:01.892Z,2065
2016-11-07T15:33:13.342Z,2045
2016-11-07T15:34:24.088Z,2030
2016-11-07T15:35:35.162Z,2155
2016-11-07T15:36:46.242Z,2235
2016-11-07T15:37:57.262Z,2350
2016-11-07T15:39:07.988Z,2265
2016-11-07T15:40:19.091Z,2075
2016-11-07T15:41:30.177Z,1975
2016-11-07T15:42:41.359Z,1855
2016-11-07T15:43:52.028Z,2000
2016-11-07T15:45:03.108Z,1975
2016-11-07T15:46:14.194Z,1790
2016-11-07T15:47:25.209Z,1875
2016-11-07T15:48:36.755Z,2020
2016-11-07T15:49:47.406Z,1780
2016-11-07T15:50:58.438Z,1375
2016-11-07T15:52:09.656Z,2035
2016-11-07T15:53:21.491Z,2110
2016-11-07T15:54:32.533Z,760
2016-11-07T15:55:43.991Z,930
2016-11-07T15:56:55.584Z,2230
2016-11-07T15:58:07.026Z,765
2016-11-07T15:59:19.436Z,900
2016-11-07T16:00:30.084Z,2225
2016-11-07T16:01:41.118Z,2150
2016-11-07T16:02:51.829Z,2285
2016-11-07T16:04:03.027Z,2350
2016-11-07T16:05:14.492Z,2260
2016-11-07T16:06:25.143Z,2215
2016-11-07T16:07:35.832Z,2140
2016-11-07T16:08:46.506Z,665
2016-11-07T16:09:58.878Z,950
2016-11-07T16:11:10.355Z,1155
2016-11-07T16:12:21.040Z,2005
2016-11-07T16:13:32.592Z,835
2016-11-07T16:14:44.084Z,725
2016-11-07T16:15:54.819Z,660
2016-11-07T16:17:05.875Z,630
2016-11-07T16:18:17.762Z,615
2016-11-07T16:19:29.176Z,615
2016-11-07T16:20:40.629Z,615
2016-11-07T16:21:51.783Z,640
2016-11-07T16:23:02.839Z,695
2016-11-07T16:24:14.294Z,720
2016-11-07T16:25:25.316Z,740
2016-11-07T16:26:36.424Z,745
2016-11-07T16:27:48.941Z,735
2016-11-07T16:28:59.984Z,755
2016-11-07T16:30:10.622Z,1095
2016-11-07T16:31:21.702Z,735
2016-11-07T16:32:32.361Z,585
2016-11-07T16:33:43.958Z,595
2016-11-07T16:34:54.649Z,1475
2016-11-07T16:37:48.068Z,375
2016-11-07T16:38:58.775Z,370
2016-11-07T16:40:10.241Z,345
2016-11-07T16:41:21.733Z,315
2016-11-07T16:42:32.777Z,275
2016-11-07T16:43:43.920Z,255
2016-11-07T16:44:58.081Z,260
2016-11-07T16:46:08.731Z,275